KSBM

Sheboygan County Memorial Airport

Sheboygan, Wisconsin, USA
METAR KSBM 211353Z AUTO 00000KT 10SM BKN100 OVC120 10/08 A3021 RMK AO2 SLP232 T01000083 TSNO
Observed Flight Rules
May-21 @ 13:53 UTC (57 minutes ago) Visual Flight Rules
Visibility Clouds
10 miles
  • Broken at 10,000' AGL
  • Overcast at 12,000' AGL
Temperatures Readings
Current 10°C / 50°F
Dewpoint 8°C / 46°F
Humidity 88%
Altimeter 30.21" Hg
Pressure 1023.2 hPa
Elevation 232
METAR KSBM 211353Z AUTO 00000KT 10SM BKN100 OVC120 10/08 A3021 RMK AO2 SLP232 T01000083 TSNO
Observed Flight Rules
May-21 @ 13:53 UTC
(57 minutes ago)
VFR
Clouds
  • Broken at 10,000' AGL
  • Overcast at 12,000' AGL
Temperature Dewpoint
10°C / 50°F 8°C / 46°F
Humidity Altimeter Pressure
88% 30.21" Hg 1023.2 hPa